sensor_id;sensor_type;location;lat;lon;timestamp;temperature;humidity
16066;DHT22;8137;48.952;8.970;2023-03-23T00:02:02;13.80;99.90
16066;DHT22;8137;48.952;8.970;2023-03-23T00:04:28;13.80;99.90
16066;DHT22;8137;48.952;8.970;2023-03-23T00:06:57;13.80;99.90
16066;DHT22;8137;48.952;8.970;2023-03-23T00:09:26;13.80;99.90
16066;DHT22;8137;48.952;8.970;2023-03-23T00:11:51;13.80;99.90
16066;DHT22;8137;48.952;8.970;2023-03-23T00:14:22;13.70;99.90
16066;DHT22;8137;48.952;8.970;2023-03-23T00:16:48;13.70;99.90
16066;DHT22;8137;48.952;8.970;2023-03-23T00:19:15;13.70;99.90
16066;DHT22;8137;48.952;8.970;2023-03-23T00:21:42;13.60;99.90
16066;DHT22;8137;48.952;8.970;2023-03-23T00:24:18;13.70;99.90
16066;DHT22;8137;48.952;8.970;2023-03-23T00:26:48;13.70;99.90
16066;DHT22;8137;48.952;8.970;2023-03-23T00:29:18;13.70;99.90
16066;DHT22;8137;48.952;8.970;2023-03-23T00:31:45;13.70;99.90
16066;DHT22;8137;48.952;8.970;2023-03-23T00:34:16;13.70;99.90
16066;DHT22;8137;48.952;8.970;2023-03-23T00:36:49;13.70;99.90
16066;DHT22;8137;48.952;8.970;2023-03-23T00:39:16;13.70;99.90
16066;DHT22;8137;48.952;8.970;2023-03-23T00:41:45;13.70;99.90
16066;DHT22;8137;48.952;8.970;2023-03-23T00:44:12;13.60;99.90
16066;DHT22;8137;48.952;8.970;2023-03-23T00:46:43;13.70;99.90
16066;DHT22;8137;48.952;8.970;2023-03-23T00:49:13;13.70;99.90
16066;DHT22;8137;48.952;8.970;2023-03-23T00:51:40;13.70;99.90
16066;DHT22;8137;48.952;8.970;2023-03-23T00:54:06;13.70;99.90
16066;DHT22;8137;48.952;8.970;2023-03-23T00:56:32;13.70;99.90
16066;DHT22;8137;48.952;8.970;2023-03-23T00:58:57;13.80;99.90
16066;DHT22;8137;48.952;8.970;2023-03-23T01:01:23;13.70;99.90
16066;DHT22;8137;48.952;8.970;2023-03-23T01:03:48;13.70;99.90
16066;DHT22;8137;48.952;8.970;2023-03-23T01:06:15;13.70;99.90
16066;DHT22;8137;48.952;8.970;2023-03-23T01:08:41;13.70;99.90
16066;DHT22;8137;48.952;8.970;2023-03-23T01:11:13;13.70;99.90
16066;DHT22;8137;48.952;8.970;2023-03-23T01:13:40;13.70;99.90
16066;DHT22;8137;48.952;8.970;2023-03-23T01:16:07;13.70;99.90
16066;DHT22;8137;48.952;8.970;2023-03-23T01:18:33;13.70;99.90
16066;DHT22;8137;48.952;8.970;2023-03-23T01:21:04;13.70;99.90
16066;DHT22;8137;48.952;8.970;2023-03-23T01:23:32;13.60;99.90
16066;DHT22;8137;48.952;8.970;2023-03-23T01:26:06;13.60;99.90
16066;DHT22;8137;48.952;8.970;2023-03-23T01:28:34;13.60;99.90
16066;DHT22;8137;48.952;8.970;2023-03-23T01:31:08;13.50;99.90
16066;DHT22;8137;48.952;8.970;2023-03-23T01:33:34;13.50;99.90
16066;DHT22;8137;48.952;8.970;2023-03-23T01:36:05;13.40;99.90
16066;DHT22;8137;48.952;8.970;2023-03-23T01:38:32;13.40;99.90
16066;DHT22;8137;48.952;8.970;2023-03-23T01:40:58;13.40;99.90
16066;DHT22;8137;48.952;8.970;2023-03-23T01:43:24;13.30;99.90
16066;DHT22;8137;48.952;8.970;2023-03-23T01:45:50;13.30;99.90
16066;DHT22;8137;48.952;8.970;2023-03-23T01:48:20;13.30;99.90
16066;DHT22;8137;48.952;8.970;2023-03-23T01:50:54;13.20;99.90
16066;DHT22;8137;48.952;8.970;2023-03-23T01:53:22;13.20;99.90
16066;DHT22;8137;48.952;8.970;2023-03-23T01:55:51;13.20;99.90
16066;DHT22;8137;48.952;8.970;2023-03-23T01:58:19;13.20;99.90
16066;DHT22;8137;48.952;8.970;2023-03-23T02:00:46;13.10;99.90
16066;DHT22;8137;48.952;8.970;2023-03-23T02:03:13;13.10;99.90
16066;DHT22;8137;48.952;8.970;2023-03-23T02:05:41;13.10;99.90
16066;DHT22;8137;48.952;8.970;2023-03-23T02:08:08;13.10;99.90
16066;DHT22;8137;48.952;8.970;2023-03-23T02:10:36;13.00;99.90
16066;DHT22;8137;48.952;8.970;2023-03-23T02:13:04;13.00;99.90
16066;DHT22;8137;48.952;8.970;2023-03-23T02:18:44;13.00;99.90
16066;DHT22;8137;48.952;8.970;2023-03-23T02:21:36;13.00;99.90
16066;DHT22;8137;48.952;8.970;2023-03-23T02:35:20;13.00;99.90
16066;DHT22;8137;48.952;8.970;2023-03-23T02:37:57;13.00;99.90
16066;DHT22;8137;48.952;8.970;2023-03-23T02:40:30;12.90;99.90
16066;DHT22;8137;48.952;8.970;2023-03-23T02:42:57;13.00;99.90
16066;DHT22;8137;48.952;8.970;2023-03-23T02:45:27;13.00;99.90
16066;DHT22;8137;48.952;8.970;2023-03-23T02:47:55;13.00;99.90
16066;DHT22;8137;48.952;8.970;2023-03-23T02:50:23;13.00;99.90
16066;DHT22;8137;48.952;8.970;2023-03-23T02:52:50;13.00;99.90
16066;DHT22;8137;48.952;8.970;2023-03-23T02:55:18;13.00;99.90
16066;DHT22;8137;48.952;8.970;2023-03-23T02:57:46;13.00;99.90
16066;DHT22;8137;48.952;8.970;2023-03-23T03:00:14;13.00;99.90
16066;DHT22;8137;48.952;8.970;2023-03-23T03:02:43;13.00;99.90
16066;DHT22;8137;48.952;8.970;2023-03-23T03:05:44;13.00;99.90
16066;DHT22;8137;48.952;8.970;2023-03-23T03:08:49;13.00;99.90
16066;DHT22;8137;48.952;8.970;2023-03-23T03:11:18;13.00;99.90
16066;DHT22;8137;48.952;8.970;2023-03-23T03:14:10;13.00;99.90
16066;DHT22;8137;48.952;8.970;2023-03-23T03:16:56;13.00;99.90
16066;DHT22;8137;48.952;8.970;2023-03-23T03:19:29;13.00;99.90
16066;DHT22;8137;48.952;8.970;2023-03-23T03:21:58;13.10;99.90
16066;DHT22;8137;48.952;8.970;2023-03-23T03:24:27;13.10;99.90
16066;DHT22;8137;48.952;8.970;2023-03-23T03:26:56;13.10;99.90
16066;DHT22;8137;48.952;8.970;2023-03-23T03:29:44;13.10;99.90
16066;DHT22;8137;48.952;8.970;2023-03-23T03:32:17;13.10;99.90
16066;DHT22;8137;48.952;8.970;2023-03-23T03:34:44;13.10;99.90
16066;DHT22;8137;48.952;8.970;2023-03-23T03:37:10;13.00;99.90
16066;DHT22;8137;48.952;8.970;2023-03-23T03:39:37;13.00;99.90
16066;DHT22;8137;48.952;8.970;2023-03-23T03:42:04;13.00;99.90
16066;DHT22;8137;48.952;8.970;2023-03-23T03:44:32;13.00;99.90
16066;DHT22;8137;48.952;8.970;2023-03-23T03:46:57;13.00;99.90
16066;DHT22;8137;48.952;8.970;2023-03-23T03:49:23;13.00;99.90
16066;DHT22;8137;48.952;8.970;2023-03-23T03:51:49;13.00;99.90
16066;DHT22;8137;48.952;8.970;2023-03-23T03:54:14;13.00;99.90
16066;DHT22;8137;48.952;8.970;2023-03-23T03:56:41;13.00;99.90
16066;DHT22;8137;48.952;8.970;2023-03-23T03:59:10;13.00;99.90
16066;DHT22;8137;48.952;8.970;2023-03-23T04:01:37;13.00;99.90
16066;DHT22;8137;48.952;8.970;2023-03-23T04:04:03;13.00;99.90
16066;DHT22;8137;48.952;8.970;2023-03-23T04:06:29;13.00;99.90
16066;DHT22;8137;48.952;8.970;2023-03-23T04:08:56;13.00;99.90
16066;DHT22;8137;48.952;8.970;2023-03-23T04:11:22;13.00;99.90
16066;DHT22;8137;48.952;8.970;2023-03-23T04:13:47;13.10;99.90
16066;DHT22;8137;48.952;8.970;2023-03-23T04:16:13;13.10;99.90
16066;DHT22;8137;48.952;8.970;2023-03-23T04:18:39;13.10;99.90
16066;DHT22;8137;48.952;8.970;2023-03-23T04:21:05;13.10;99.90
16066;DHT22;8137;48.952;8.970;2023-03-23T04:23:34;13.10;99.90
16066;DHT22;8137;48.952;8.970;2023-03-23T04:26:01;13.10;99.90
16066;DHT22;8137;48.952;8.970;2023-03-23T04:28:28;13.10;99.90
16066;DHT22;8137;48.952;8.970;2023-03-23T04:30:55;13.10;99.90
16066;DHT22;8137;48.952;8.970;2023-03-23T04:33:25;13.10;99.90
16066;DHT22;8137;48.952;8.970;2023-03-23T04:35:55;13.10;99.90
16066;DHT22;8137;48.952;8.970;2023-03-23T04:38:22;13.10;99.90
16066;DHT22;8137;48.952;8.970;2023-03-23T04:40:50;13.10;99.90
16066;DHT22;8137;48.952;8.970;2023-03-23T04:43:19;13.10;99.90
16066;DHT22;8137;48.952;8.970;2023-03-23T04:45:46;13.10;99.90
16066;DHT22;8137;48.952;8.970;2023-03-23T04:48:12;13.20;99.90
16066;DHT22;8137;48.952;8.970;2023-03-23T04:50:39;13.20;99.90
16066;DHT22;8137;48.952;8.970;2023-03-23T04:53:04;13.20;99.90
16066;DHT22;8137;48.952;8.970;2023-03-23T04:55:31;13.30;99.90
16066;DHT22;8137;48.952;8.970;2023-03-23T04:58:04;13.30;99.90
16066;DHT22;8137;48.952;8.970;2023-03-23T05:00:31;13.20;99.90
16066;DHT22;8137;48.952;8.970;2023-03-23T05:02:58;13.30;99.90
16066;DHT22;8137;48.952;8.970;2023-03-23T05:05:25;13.30;99.90
16066;DHT22;8137;48.952;8.970;2023-03-23T05:07:52;13.30;99.90
16066;DHT22;8137;48.952;8.970;2023-03-23T05:10:18;13.30;99.90
16066;DHT22;8137;48.952;8.970;2023-03-23T05:12:44;13.40;99.90
16066;DHT22;8137;48.952;8.970;2023-03-23T05:15:11;13.40;99.90
16066;DHT22;8137;48.952;8.970;2023-03-23T05:17:37;13.40;99.90
16066;DHT22;8137;48.952;8.970;2023-03-23T05:20:04;13.40;99.90
16066;DHT22;8137;48.952;8.970;2023-03-23T05:22:33;13.40;99.90
16066;DHT22;8137;48.952;8.970;2023-03-23T05:24:59;13.40;99.90
16066;DHT22;8137;48.952;8.970;2023-03-23T05:27:28;13.40;99.90
16066;DHT22;8137;48.952;8.970;2023-03-23T05:29:56;13.30;99.90
16066;DHT22;8137;48.952;8.970;2023-03-23T05:32:26;13.40;99.90
16066;DHT22;8137;48.952;8.970;2023-03-23T05:35:01;13.40;99.90
16066;DHT22;8137;48.952;8.970;2023-03-23T05:37:28;13.30;99.90
16066;DHT22;8137;48.952;8.970;2023-03-23T05:40:00;13.30;99.90
16066;DHT22;8137;48.952;8.970;2023-03-23T05:42:32;13.30;99.90
16066;DHT22;8137;48.952;8.970;2023-03-23T05:44:58;13.30;99.90
16066;DHT22;8137;48.952;8.970;2023-03-23T05:47:24;13.30;99.90
16066;DHT22;8137;48.952;8.970;2023-03-23T05:49:51;13.30;99.90
16066;DHT22;8137;48.952;8.970;2023-03-23T05:52:17;13.40;99.90
16066;DHT22;8137;48.952;8.970;2023-03-23T05:54:43;13.40;99.90
16066;DHT22;8137;48.952;8.970;2023-03-23T05:57:08;13.40;99.90
16066;DHT22;8137;48.952;8.970;2023-03-23T05:59:35;13.40;99.90
16066;DHT22;8137;48.952;8.970;2023-03-23T06:02:00;13.40;99.90
16066;DHT22;8137;48.952;8.970;2023-03-23T06:04:26;13.40;99.90
16066;DHT22;8137;48.952;8.970;2023-03-23T06:06:52;13.40;99.90
16066;DHT22;8137;48.952;8.970;2023-03-23T06:09:18;13.40;99.90
16066;DHT22;8137;48.952;8.970;2023-03-23T06:11:44;13.50;99.90
16066;DHT22;8137;48.952;8.970;2023-03-23T06:14:10;13.50;99.90
16066;DHT22;8137;48.952;8.970;2023-03-23T06:16:37;13.50;99.90
16066;DHT22;8137;48.952;8.970;2023-03-23T06:19:02;13.50;99.90
16066;DHT22;8137;48.952;8.970;2023-03-23T06:21:30;13.50;99.90
16066;DHT22;8137;48.952;8.970;2023-03-23T06:23:56;13.50;99.90
16066;DHT22;8137;48.952;8.970;2023-03-23T06:26:24;13.50;99.90
16066;DHT22;8137;48.952;8.970;2023-03-23T06:28:51;13.50;99.90
16066;DHT22;8137;48.952;8.970;2023-03-23T06:31:16;13.50;99.90
16066;DHT22;8137;48.952;8.970;2023-03-23T06:33:45;13.50;99.90
16066;DHT22;8137;48.952;8.970;2023-03-23T06:36:10;13.50;99.90
16066;DHT22;8137;48.952;8.970;2023-03-23T06:38:37;13.50;99.90
16066;DHT22;8137;48.952;8.970;2023-03-23T06:41:03;13.60;99.90
16066;DHT22;8137;48.952;8.970;2023-03-23T06:43:28;13.60;99.90
16066;DHT22;8137;48.952;8.970;2023-03-23T06:45:54;13.60;99.90
16066;DHT22;8137;48.952;8.970;2023-03-23T06:48:19;13.70;99.90
16066;DHT22;8137;48.952;8.970;2023-03-23T06:50:46;13.80;99.90
16066;DHT22;8137;48.952;8.970;2023-03-23T06:53:11;13.80;99.90
16066;DHT22;8137;48.952;8.970;2023-03-23T06:55:38;13.80;99.90
16066;DHT22;8137;48.952;8.970;2023-03-23T06:58:05;13.80;99.90
16066;DHT22;8137;48.952;8.970;2023-03-23T07:00:32;13.80;99.90
16066;DHT22;8137;48.952;8.970;2023-03-23T07:02:58;13.90;99.90
16066;DHT22;8137;48.952;8.970;2023-03-23T07:05:23;13.90;99.90
16066;DHT22;8137;48.952;8.970;2023-03-23T07:07:49;14.00;99.90
16066;DHT22;8137;48.952;8.970;2023-03-23T07:10:15;14.10;99.90
16066;DHT22;8137;48.952;8.970;2023-03-23T07:12:41;14.20;99.90
16066;DHT22;8137;48.952;8.970;2023-03-23T07:15:07;14.30;99.90
16066;DHT22;8137;48.952;8.970;2023-03-23T07:17:36;14.30;99.90
16066;DHT22;8137;48.952;8.970;2023-03-23T07:20:02;14.30;99.90
16066;DHT22;8137;48.952;8.970;2023-03-23T07:22:27;14.40;99.90
16066;DHT22;8137;48.952;8.970;2023-03-23T07:24:53;14.40;99.90
16066;DHT22;8137;48.952;8.970;2023-03-23T07:27:19;14.40;99.90
16066;DHT22;8137;48.952;8.970;2023-03-23T07:29:44;14.40;99.90
16066;DHT22;8137;48.952;8.970;2023-03-23T07:32:11;14.40;99.90
16066;DHT22;8137;48.952;8.970;2023-03-23T07:34:37;14.40;99.90
16066;DHT22;8137;48.952;8.970;2023-03-23T07:37:03;14.40;99.90
16066;DHT22;8137;48.952;8.970;2023-03-23T07:39:29;14.40;99.90
16066;DHT22;8137;48.952;8.970;2023-03-23T07:41:55;14.60;99.90
16066;DHT22;8137;48.952;8.970;2023-03-23T07:44:21;14.70;99.90
16066;DHT22;8137;48.952;8.970;2023-03-23T07:46:47;14.70;99.90
16066;DHT22;8137;48.952;8.970;2023-03-23T07:49:13;14.80;99.90
16066;DHT22;8137;48.952;8.970;2023-03-23T07:51:39;14.90;99.90
16066;DHT22;8137;48.952;8.970;2023-03-23T07:54:05;14.90;99.90
16066;DHT22;8137;48.952;8.970;2023-03-23T07:56:36;14.90;99.90
16066;DHT22;8137;48.952;8.970;2023-03-23T07:59:03;14.80;99.90
16066;DHT22;8137;48.952;8.970;2023-03-23T08:01:30;14.80;99.90
16066;DHT22;8137;48.952;8.970;2023-03-23T08:03:56;14.70;99.90
16066;DHT22;8137;48.952;8.970;2023-03-23T08:06:23;14.70;99.90
16066;DHT22;8137;48.952;8.970;2023-03-23T08:08:49;14.70;99.90
16066;DHT22;8137;48.952;8.970;2023-03-23T08:11:16;14.60;99.90
16066;DHT22;8137;48.952;8.970;2023-03-23T08:13:42;14.60;99.90
16066;DHT22;8137;48.952;8.970;2023-03-23T08:16:09;14.60;99.90
16066;DHT22;8137;48.952;8.970;2023-03-23T08:18:36;14.60;99.90
16066;DHT22;8137;48.952;8.970;2023-03-23T08:21:03;14.60;99.90
16066;DHT22;8137;48.952;8.970;2023-03-23T08:23:35;14.50;99.90
16066;DHT22;8137;48.952;8.970;2023-03-23T08:26:03;14.40;99.90
16066;DHT22;8137;48.952;8.970;2023-03-23T08:28:29;14.40;99.90
16066;DHT22;8137;48.952;8.970;2023-03-23T08:30:54;14.20;99.90
16066;DHT22;8137;48.952;8.970;2023-03-23T08:33:20;14.10;99.90
16066;DHT22;8137;48.952;8.970;2023-03-23T08:35:55;14.00;99.90
16066;DHT22;8137;48.952;8.970;2023-03-23T08:38:22;14.00;99.90
16066;DHT22;8137;48.952;8.970;2023-03-23T08:40:47;13.90;99.90
16066;DHT22;8137;48.952;8.970;2023-03-23T08:43:13;13.90;99.90
16066;DHT22;8137;48.952;8.970;2023-03-23T08:45:40;14.00;99.90
16066;DHT22;8137;48.952;8.970;2023-03-23T08:48:06;14.00;99.90
16066;DHT22;8137;48.952;8.970;2023-03-23T08:50:34;14.00;99.90
16066;DHT22;8137;48.952;8.970;2023-03-23T08:53:00;14.10;99.90
16066;DHT22;8137;48.952;8.970;2023-03-23T08:55:26;14.20;99.90
16066;DHT22;8137;48.952;8.970;2023-03-23T08:57:52;14.30;99.90
16066;DHT22;8137;48.952;8.970;2023-03-23T09:00:20;14.30;99.90
16066;DHT22;8137;48.952;8.970;2023-03-23T09:02:48;14.40;99.90
16066;DHT22;8137;48.952;8.970;2023-03-23T09:05:15;14.50;99.90
16066;DHT22;8137;48.952;8.970;2023-03-23T09:07:43;14.60;99.90
16066;DHT22;8137;48.952;8.970;2023-03-23T09:10:10;14.70;99.90
16066;DHT22;8137;48.952;8.970;2023-03-23T09:12:36;14.70;99.90
16066;DHT22;8137;48.952;8.970;2023-03-23T09:15:03;14.70;99.90
16066;DHT22;8137;48.952;8.970;2023-03-23T09:17:35;14.70;99.90
16066;DHT22;8137;48.952;8.970;2023-03-23T09:20:01;14.70;99.90
16066;DHT22;8137;48.952;8.970;2023-03-23T09:22:29;14.60;99.90
16066;DHT22;8137;48.952;8.970;2023-03-23T09:24:54;14.60;99.90
16066;DHT22;8137;48.952;8.970;2023-03-23T09:27:20;14.40;99.90
16066;DHT22;8137;48.952;8.970;2023-03-23T09:29:45;14.40;99.90
16066;DHT22;8137;48.952;8.970;2023-03-23T09:32:14;14.20;99.90
16066;DHT22;8137;48.952;8.970;2023-03-23T09:34:40;14.20;99.90
16066;DHT22;8137;48.952;8.970;2023-03-23T09:37:06;14.30;99.90
16066;DHT22;8137;48.952;8.970;2023-03-23T09:39:32;14.40;99.90
16066;DHT22;8137;48.952;8.970;2023-03-23T09:42:08;14.40;99.90
16066;DHT22;8137;48.952;8.970;2023-03-23T09:50:24;14.80;99.90
16066;DHT22;8137;48.952;8.970;2023-03-23T09:52:57;14.90;99.90
16066;DHT22;8137;48.952;8.970;2023-03-23T09:55:24;14.80;99.90
16066;DHT22;8137;48.952;8.970;2023-03-23T09:58:12;14.70;99.90
16066;DHT22;8137;48.952;8.970;2023-03-23T10:01:27;14.50;99.90
16066;DHT22;8137;48.952;8.970;2023-03-23T10:03:47;14.40;99.90
16066;DHT22;8137;48.952;8.970;2023-03-23T10:06:17;14.30;99.90
16066;DHT22;8137;48.952;8.970;2023-03-23T10:08:51;14.50;99.90
16066;DHT22;8137;48.952;8.970;2023-03-23T10:19:49;14.10;99.90
16066;DHT22;8137;48.952;8.970;2023-03-23T10:22:29;14.40;99.90
16066;DHT22;8137;48.952;8.970;2023-03-23T10:30:34;14.90;99.90
16066;DHT22;8137;48.952;8.970;2023-03-23T10:33:15;15.30;99.90
16066;DHT22;8137;48.952;8.970;2023-03-23T10:36:07;15.60;99.90
16066;DHT22;8137;48.952;8.970;2023-03-23T10:38:44;15.60;99.90
16066;DHT22;8137;48.952;8.970;2023-03-23T10:41:13;15.50;99.90
16066;DHT22;8137;48.952;8.970;2023-03-23T10:43:40;15.50;99.90
16066;DHT22;8137;48.952;8.970;2023-03-23T10:46:40;15.50;99.90
16066;DHT22;8137;48.952;8.970;2023-03-23T10:49:13;15.30;99.90
16066;DHT22;8137;48.952;8.970;2023-03-23T10:51:44;15.50;99.90
16066;DHT22;8137;48.952;8.970;2023-03-23T10:54:11;15.50;99.90
16066;DHT22;8137;48.952;8.970;2023-03-23T10:56:43;15.50;99.90
16066;DHT22;8137;48.952;8.970;2023-03-23T10:59:14;15.30;99.90
16066;DHT22;8137;48.952;8.970;2023-03-23T11:01:43;15.10;99.90
16066;DHT22;8137;48.952;8.970;2023-03-23T11:04:14;15.00;99.90
16066;DHT22;8137;48.952;8.970;2023-03-23T11:06:45;15.00;99.90
16066;DHT22;8137;48.952;8.970;2023-03-23T11:09:14;15.00;99.90
16066;DHT22;8137;48.952;8.970;2023-03-23T11:11:43;15.10;99.90
16066;DHT22;8137;48.952;8.970;2023-03-23T11:14:25;15.10;99.90
16066;DHT22;8137;48.952;8.970;2023-03-23T11:17:03;15.00;99.90
16066;DHT22;8137;48.952;8.970;2023-03-23T11:19:32;15.30;99.90
16066;DHT22;8137;48.952;8.970;2023-03-23T11:24:33;15.70;99.90
16066;DHT22;8137;48.952;8.970;2023-03-23T11:26:59;15.80;99.90
16066;DHT22;8137;48.952;8.970;2023-03-23T11:29:27;15.60;99.90
16066;DHT22;8137;48.952;8.970;2023-03-23T11:32:03;15.70;99.90
16066;DHT22;8137;48.952;8.970;2023-03-23T11:34:43;16.10;99.90
16066;DHT22;8137;48.952;8.970;2023-03-23T11:37:18;15.90;99.90
16066;DHT22;8137;48.952;8.970;2023-03-23T11:42:47;16.20;99.90
16066;DHT22;8137;48.952;8.970;2023-03-23T11:47:43;16.30;99.90
16066;DHT22;8137;48.952;8.970;2023-03-23T11:50:31;16.20;99.90
16066;DHT22;8137;48.952;8.970;2023-03-23T11:53:13;16.10;99.90
16066;DHT22;8137;48.952;8.970;2023-03-23T11:58:13;15.80;99.90
16066;DHT22;8137;48.952;8.970;2023-03-23T12:00:55;15.80;99.90
16066;DHT22;8137;48.952;8.970;2023-03-23T12:03:56;15.90;99.90
16066;DHT22;8137;48.952;8.970;2023-03-23T12:06:54;16.10;99.90
16066;DHT22;8137;48.952;8.970;2023-03-23T12:09:43;16.50;99.90
16066;DHT22;8137;48.952;8.970;2023-03-23T12:12:26;16.50;99.90
16066;DHT22;8137;48.952;8.970;2023-03-23T12:15:04;16.50;99.90
16066;DHT22;8137;48.952;8.970;2023-03-23T12:17:45;16.20;99.90
16066;DHT22;8137;48.952;8.970;2023-03-23T12:20:20;16.00;99.90
16066;DHT22;8137;48.952;8.970;2023-03-23T12:26:02;15.80;99.90
16066;DHT22;8137;48.952;8.970;2023-03-23T12:28:55;16.10;99.90
16066;DHT22;8137;48.952;8.970;2023-03-23T12:34:54;16.70;99.90
16066;DHT22;8137;48.952;8.970;2023-03-23T12:37:54;16.80;99.90
16066;DHT22;8137;48.952;8.970;2023-03-23T12:43:36;16.70;99.90
16066;DHT22;8137;48.952;8.970;2023-03-23T12:46:45;16.90;99.90
16066;DHT22;8137;48.952;8.970;2023-03-23T12:49:27;17.10;99.90
16066;DHT22;8137;48.952;8.970;2023-03-23T12:51:59;17.30;99.90
16066;DHT22;8137;48.952;8.970;2023-03-23T12:54:40;17.30;99.90
16066;DHT22;8137;48.952;8.970;2023-03-23T12:57:16;17.20;99.90
16066;DHT22;8137;48.952;8.970;2023-03-23T13:00:03;17.20;99.90
16066;DHT22;8137;48.952;8.970;2023-03-23T13:07:56;17.20;99.90
16066;DHT22;8137;48.952;8.970;2023-03-23T13:10:28;17.10;99.90
16066;DHT22;8137;48.952;8.970;2023-03-23T13:12:55;17.00;99.90
16066;DHT22;8137;48.952;8.970;2023-03-23T13:21:12;16.90;99.90
16066;DHT22;8137;48.952;8.970;2023-03-23T13:23:45;16.90;99.90
16066;DHT22;8137;48.952;8.970;2023-03-23T13:26:14;16.80;99.90
16066;DHT22;8137;48.952;8.970;2023-03-23T13:29:01;16.80;99.90
16066;DHT22;8137;48.952;8.970;2023-03-23T13:31:35;16.80;99.90
16066;DHT22;8137;48.952;8.970;2023-03-23T13:34:22;16.70;99.90
16066;DHT22;8137;48.952;8.970;2023-03-23T13:39:29;16.40;99.90
16066;DHT22;8137;48.952;8.970;2023-03-23T13:50:28;16.40;99.90
16066;DHT22;8137;48.952;8.970;2023-03-23T13:52:59;16.60;99.90
16066;DHT22;8137;48.952;8.970;2023-03-23T13:55:42;16.60;99.90
16066;DHT22;8137;48.952;8.970;2023-03-23T14:00:48;16.80;99.90
16066;DHT22;8137;48.952;8.970;2023-03-23T14:03:24;16.90;99.90
16066;DHT22;8137;48.952;8.970;2023-03-23T14:11:00;17.40;99.90
16066;DHT22;8137;48.952;8.970;2023-03-23T14:13:33;17.40;99.90
16066;DHT22;8137;48.952;8.970;2023-03-23T14:18:31;17.50;99.90
16066;DHT22;8137;48.952;8.970;2023-03-23T14:20:57;17.50;99.90
16066;DHT22;8137;48.952;8.970;2023-03-23T14:23:24;17.40;99.90
16066;DHT22;8137;48.952;8.970;2023-03-23T14:25:59;17.30;99.90
16066;DHT22;8137;48.952;8.970;2023-03-23T14:28:37;17.10;99.90
16066;DHT22;8137;48.952;8.970;2023-03-23T14:31:03;16.90;99.90
16066;DHT22;8137;48.952;8.970;2023-03-23T14:33:29;16.80;99.90
16066;DHT22;8137;48.952;8.970;2023-03-23T14:35:58;16.90;99.90
16066;DHT22;8137;48.952;8.970;2023-03-23T14:38:25;16.80;99.90
16066;DHT22;8137;48.952;8.970;2023-03-23T14:41:03;16.80;99.90
16066;DHT22;8137;48.952;8.970;2023-03-23T14:43:30;16.90;99.90
16066;DHT22;8137;48.952;8.970;2023-03-23T14:46:00;16.90;99.90
16066;DHT22;8137;48.952;8.970;2023-03-23T14:48:27;17.00;99.90
16066;DHT22;8137;48.952;8.970;2023-03-23T14:51:02;16.90;99.90
16066;DHT22;8137;48.952;8.970;2023-03-23T14:53:36;16.90;99.90
16066;DHT22;8137;48.952;8.970;2023-03-23T14:56:10;16.90;99.90
16066;DHT22;8137;48.952;8.970;2023-03-23T14:58:36;16.80;99.90
16066;DHT22;8137;48.952;8.970;2023-03-23T15:01:13;16.70;99.90
16066;DHT22;8137;48.952;8.970;2023-03-23T15:03:49;16.60;99.90
16066;DHT22;8137;48.952;8.970;2023-03-23T15:06:19;16.60;99.90
16066;DHT22;8137;48.952;8.970;2023-03-23T15:08:47;16.50;99.90
16066;DHT22;8137;48.952;8.970;2023-03-23T15:13:50;16.40;99.90
16066;DHT22;8137;48.952;8.970;2023-03-23T15:16:22;16.30;99.90
16066;DHT22;8137;48.952;8.970;2023-03-23T15:19:00;16.30;99.90
16066;DHT22;8137;48.952;8.970;2023-03-23T15:24:35;16.10;99.90
16066;DHT22;8137;48.952;8.970;2023-03-23T15:29:50;16.00;99.90
16066;DHT22;8137;48.952;8.970;2023-03-23T15:32:40;15.90;99.90
16066;DHT22;8137;48.952;8.970;2023-03-23T15:35:25;15.80;99.90
16066;DHT22;8137;48.952;8.970;2023-03-23T15:37:57;15.70;99.90
16066;DHT22;8137;48.952;8.970;2023-03-23T15:40:25;15.70;99.90
16066;DHT22;8137;48.952;8.970;2023-03-23T15:43:48;15.60;99.90
16066;DHT22;8137;48.952;8.970;2023-03-23T15:46:04;15.60;99.90
16066;DHT22;8137;48.952;8.970;2023-03-23T15:48:34;15.60;99.90
16066;DHT22;8137;48.952;8.970;2023-03-23T15:51:10;15.50;99.90
16066;DHT22;8137;48.952;8.970;2023-03-23T15:53:38;15.50;99.90
16066;DHT22;8137;48.952;8.970;2023-03-23T15:56:06;15.50;99.90
16066;DHT22;8137;48.952;8.970;2023-03-23T15:58:32;15.40;99.90
16066;DHT22;8137;48.952;8.970;2023-03-23T16:01:01;15.40;99.90
16066;DHT22;8137;48.952;8.970;2023-03-23T16:03:33;15.40;99.90
16066;DHT22;8137;48.952;8.970;2023-03-23T16:06:00;15.40;99.90
16066;DHT22;8137;48.952;8.970;2023-03-23T16:08:27;15.40;99.90
16066;DHT22;8137;48.952;8.970;2023-03-23T16:10:53;15.30;99.90
16066;DHT22;8137;48.952;8.970;2023-03-23T16:13:19;15.40;99.90
16066;DHT22;8137;48.952;8.970;2023-03-23T16:15:46;15.30;99.90
16066;DHT22;8137;48.952;8.970;2023-03-23T16:18:20;15.30;99.90
16066;DHT22;8137;48.952;8.970;2023-03-23T16:20:47;15.30;99.90
16066;DHT22;8137;48.952;8.970;2023-03-23T16:23:13;15.40;99.90
16066;DHT22;8137;48.952;8.970;2023-03-23T16:25:39;15.40;99.90
16066;DHT22;8137;48.952;8.970;2023-03-23T16:28:07;15.50;99.90
16066;DHT22;8137;48.952;8.970;2023-03-23T16:30:34;15.50;99.90
16066;DHT22;8137;48.952;8.970;2023-03-23T16:33:02;15.50;99.90
16066;DHT22;8137;48.952;8.970;2023-03-23T16:35:28;15.50;99.90
16066;DHT22;8137;48.952;8.970;2023-03-23T16:37:55;15.50;99.90
16066;DHT22;8137;48.952;8.970;2023-03-23T16:40:21;15.50;99.90
16066;DHT22;8137;48.952;8.970;2023-03-23T16:42:47;15.50;99.90
16066;DHT22;8137;48.952;8.970;2023-03-23T16:45:14;15.50;99.90
16066;DHT22;8137;48.952;8.970;2023-03-23T16:47:40;15.40;99.90
16066;DHT22;8137;48.952;8.970;2023-03-23T16:50:08;15.40;99.90
16066;DHT22;8137;48.952;8.970;2023-03-23T16:52:37;15.40;99.90
16066;DHT22;8137;48.952;8.970;2023-03-23T16:55:02;15.30;99.90
16066;DHT22;8137;48.952;8.970;2023-03-23T16:57:28;15.30;99.90
16066;DHT22;8137;48.952;8.970;2023-03-23T16:59:54;15.30;99.90
16066;DHT22;8137;48.952;8.970;2023-03-23T17:02:23;15.20;99.90
16066;DHT22;8137;48.952;8.970;2023-03-23T17:04:49;15.10;99.90
16066;DHT22;8137;48.952;8.970;2023-03-23T17:07:15;15.10;99.90
16066;DHT22;8137;48.952;8.970;2023-03-23T17:09:41;15.00;99.90
16066;DHT22;8137;48.952;8.970;2023-03-23T17:12:06;15.00;99.90
16066;DHT22;8137;48.952;8.970;2023-03-23T17:14:32;14.90;99.90
16066;DHT22;8137;48.952;8.970;2023-03-23T17:16:58;14.80;99.90
16066;DHT22;8137;48.952;8.970;2023-03-23T17:19:24;14.80;99.90
16066;DHT22;8137;48.952;8.970;2023-03-23T17:21:50;14.70;99.90
16066;DHT22;8137;48.952;8.970;2023-03-23T17:24:16;14.70;99.90
16066;DHT22;8137;48.952;8.970;2023-03-23T17:26:42;14.70;99.90
16066;DHT22;8137;48.952;8.970;2023-03-23T17:29:07;14.60;99.90
16066;DHT22;8137;48.952;8.970;2023-03-23T17:31:33;14.60;99.90
16066;DHT22;8137;48.952;8.970;2023-03-23T17:33:59;14.50;99.90
16066;DHT22;8137;48.952;8.970;2023-03-23T17:36:25;14.50;99.90
16066;DHT22;8137;48.952;8.970;2023-03-23T17:38:50;14.40;99.90